Time;durP1;ratioP1;P1;durP2;ratioP2;P2;SDS_P1;SDS_P2;PMS_P1;PMS_P2;Temp;Humidity;BMP_temperature;BMP_pressure;BME280_temperature;BME280_humidity;BME280_pressure;Samples;Min_cycle;Max_cycle;Signal;HPM_P1;HPM_P2
2021/07/28 00:01:35;;;;;;;18.33;12.38;;;640.50;2432.00;;;;;;5003085;28;20084;-87
2021/07/28 00:04:01;;;;;;;22.23;12.73;;;640.40;2432.00;;;;;;4999845;28;20113;-87
2021/07/28 00:06:27;;;;;;;25.50;14.68;;;640.40;2432.00;;;;;;4999203;28;20057;-87
2021/07/28 00:08:53;;;;;;;20.88;12.55;;;640.20;2432.00;;;;;;5000077;28;20041;-88
2021/07/28 00:11:19;;;;;;;22.92;13.00;;;640.20;2432.00;;;;;;5000020;28;20022;-88
2021/07/28 00:13:46;;;;;;;19.35;12.40;;;615.30;2432.00;;;;;;5000041;28;20032;-89
2021/07/28 00:16:15;;;;;;;20.73;11.75;;;640.10;2432.00;;;;;;4998564;28;20037;-87
2021/07/28 00:23:58;;;;;;;22.15;11.93;;;640.00;2432.00;;;;;;5017025;28;20033;-87
2021/07/28 00:26:24;;;;;;;19.63;13.38;;;640.00;2432.00;;;;;;4999542;28;20030;-87
2021/07/28 00:28:49;;;;;;;26.63;13.05;;;615.30;2432.00;;;;;;4999129;28;20475;-87
2021/07/28 00:31:15;;;;;;;24.00;12.43;;;615.30;2432.00;;;;;;4998550;28;20022;-87
2021/07/28 00:33:41;;;;;;;21.10;12.65;;;615.20;2432.00;;;;;;4998604;28;20028;-87
2021/07/28 00:36:07;;;;;;;20.40;12.45;;;615.00;2432.00;;;;;;4998510;28;20109;-87
2021/07/28 00:38:33;;;;;;;21.27;12.50;;;615.20;2432.00;;;;;;4998810;28;20112;-87
2021/07/28 00:40:59;;;;;;;21.63;12.68;;;615.00;2432.00;;;;;;4999588;28;20022;-87
2021/07/28 00:43:25;;;;;;;21.23;12.10;;;615.10;2432.00;;;;;;4999159;28;20279;-87
2021/07/28 00:45:51;;;;;;;19.67;11.70;;;615.20;2432.00;;;;;;4998348;28;20029;-87
2021/07/28 00:48:17;;;;;;;18.65;13.07;;;615.20;2432.00;;;;;;4998141;28;20124;-87
2021/07/28 00:50:44;;;;;;;19.60;13.30;;;615.20;2432.00;;;;;;4998382;28;20117;-87
2021/07/28 00:53:19;;;;;;;19.98;13.07;;;615.30;2432.00;;;;;;4999559;28;20483;-88
2021/07/28 00:55:49;;;;;;;21.52;12.80;;;615.10;2432.00;;;;;;4999549;28;20030;-88
2021/07/28 00:58:17;;;;;;;21.20;13.85;;;615.20;2432.00;;;;;;4998832;28;20022;-88
2021/07/28 01:00:43;;;;;;;20.45;12.85;;;615.30;2432.00;;;;;;4998602;28;20034;-88
2021/07/28 01:03:09;;;;;;;19.33;12.90;;;615.30;2432.00;;;;;;4998421;28;20041;-88
2021/07/28 01:05:36;;;;;;;28.67;14.40;;;615.30;2432.00;;;;;;4998563;28;20029;-88
2021/07/28 01:08:02;;;;;;;22.15;13.73;;;615.30;2432.00;;;;;;4998475;28;20033;-87
2021/07/28 01:10:28;;;;;;;20.92;13.10;;;615.00;2432.00;;;;;;4997975;28;20467;-87
2021/07/28 01:12:55;;;;;;;23.10;13.82;;;615.10;2432.00;;;;;;4998393;28;20032;-87
2021/07/28 01:15:34;;;;;;;25.73;13.13;;;615.10;2432.00;;;;;;4997427;28;20033;-87
2021/07/28 01:18:08;;;;;;;20.00;13.20;;;615.20;2432.00;;;;;;4997396;28;20050;-87
2021/07/28 01:20:40;;;;;;;22.48;14.05;;;614.90;2432.00;;;;;;4997332;28;20028;-87
2021/07/28 01:23:25;;;;;;;24.07;13.57;;;614.80;2432.00;;;;;;4998029;28;20022;-87
2021/07/28 01:25:52;;;;;;;21.08;12.50;;;614.90;2432.00;;;;;;4998226;28;20271;-88
2021/07/28 01:28:23;;;;;;;21.23;12.52;;;614.90;2432.00;;;;;;4997959;28;20026;-88
2021/07/28 01:31:01;;;;;;;21.05;12.95;;;614.90;2432.00;;;;;;4997466;28;20033;-87
2021/07/28 01:33:29;;;;;;;20.13;12.35;;;614.90;2432.00;;;;;;4997016;28;20032;-87
2021/07/28 01:35:57;;;;;;;20.85;13.13;;;614.80;2432.00;;;;;;4997286;28;20033;-87
2021/07/28 01:38:27;;;;;;;20.80;12.40;;;614.90;2432.00;;;;;;4997887;28;20037;-87
2021/07/28 01:41:00;;;;;;;19.23;13.02;;;614.90;2432.00;;;;;;4997853;28;20076;-87
2021/07/28 01:43:27;;;;;;;22.20;12.40;;;614.90;2432.00;;;;;;4997815;28;20026;-87
2021/07/28 01:45:54;;;;;;;22.08;13.00;;;614.80;2432.00;;;;;;4997963;28;20530;-87
2021/07/28 01:48:21;;;;;;;23.08;12.52;;;614.80;2432.00;;;;;;4997741;28;20026;-87
2021/07/28 01:50:47;;;;;;;28.65;13.32;;;614.80;2432.00;;;;;;4998213;28;20029;-88
2021/07/28 01:53:14;;;;;;;16.67;12.20;;;614.40;2432.00;;;;;;4998312;28;20041;-88
2021/07/28 01:55:41;;;;;;;20.90;12.70;;;614.60;2432.00;;;;;;4998613;28;20037;-88
2021/07/28 01:58:07;;;;;;;19.92;13.40;;;614.50;2432.00;;;;;;4999066;28;20063;-88
2021/07/28 02:00:33;;;;;;;24.42;14.80;;;589.70;2432.00;;;;;;4997872;28;20030;-87
2021/07/28 02:03:04;;;;;;;19.45;12.85;;;589.70;2432.00;;;;;;4997728;28;20024;-87
2021/07/28 02:05:37;;;;;;;21.77;12.97;;;589.70;2432.00;;;;;;4998111;28;20022;-87
2021/07/28 02:08:06;;;;;;;23.60;13.27;;;614.40;2432.00;;;;;;4997969;28;20026;-87
2021/07/28 02:10:38;;;;;;;18.10;11.90;;;614.40;2432.00;;;;;;4997902;28;20050;-87
2021/07/28 02:13:05;;;;;;;18.67;12.75;;;614.50;2432.00;;;;;;4997472;28;20124;-87
2021/07/28 02:15:32;;;;;;;18.75;13.13;;;614.50;2432.00;;;;;;4997202;28;20033;-88
2021/07/28 02:17:59;;;;;;;20.58;12.85;;;614.70;2432.00;;;;;;4997322;28;20049;-87
2021/07/28 02:20:26;;;;;;;21.98;12.75;;;614.60;2432.00;;;;;;4997301;28;20040;-87
2021/07/28 02:22:52;;;;;;;16.65;11.70;;;614.50;2432.00;;;;;;4997400;28;20502;-87
2021/07/28 02:25:18;;;;;;;19.45;12.88;;;614.50;2432.00;;;;;;4997598;28;20475;-87
2021/07/28 02:27:44;;;;;;;25.48;13.05;;;614.40;2432.00;;;;;;4997528;28;20054;-87
2021/07/28 02:30:13;;;;;;;17.45;13.00;;;614.40;2432.00;;;;;;4997231;28;20047;-87
2021/07/28 02:32:39;;;;;;;17.77;13.25;;;589.70;2432.00;;;;;;4997061;28;20037;-87
2021/07/28 02:35:05;;;;;;;18.33;12.82;;;589.60;2432.00;;;;;;4997365;28;20026;-87
2021/07/28 02:37:32;;;;;;;21.67;12.93;;;614.40;2432.00;;;;;;4996989;28;20089;-87
2021/07/28 02:39:58;;;;;;;23.58;12.88;;;589.60;2432.00;;;;;;4997833;28;20026;-87
2021/07/28 02:42:24;;;;;;;20.05;13.25;;;589.60;2432.00;;;;;;5001564;28;20018;-87
2021/07/28 02:44:50;;;;;;;23.90;13.38;;;589.30;2432.00;;;;;;5000948;28;20045;-87
2021/07/28 02:47:16;;;;;;;17.58;13.52;;;589.50;2432.00;;;;;;5001099;28;20494;-87
2021/07/28 02:49:42;;;;;;;21.80;12.93;;;589.40;2432.00;;;;;;5000645;28;20030;-87
2021/07/28 02:52:07;;;;;;;24.23;13.60;;;589.60;2432.00;;;;;;5000767;28;20032;-87
2021/07/28 02:54:34;;;;;;;25.17;15.55;;;589.70;2432.00;;;;;;5000786;28;20121;-87
2021/07/28 02:57:00;;;;;;;19.58;13.00;;;589.40;2432.00;;;;;;5000805;28;20021;-87
2021/07/28 02:59:25;;;;;;;23.30;13.98;;;589.60;2432.00;;;;;;5000812;28;20121;-87
2021/07/28 03:01:54;;;;;;;24.52;14.10;;;589.50;2432.00;;;;;;5000859;28;20045;-87
2021/07/28 03:04:21;;;;;;;25.08;14.45;;;589.20;2432.00;;;;;;5000824;28;20057;-87
2021/07/28 03:06:47;;;;;;;21.40;14.27;;;589.00;2432.00;;;;;;5000938;28;20026;-87
2021/07/28 03:09:13;;;;;;;26.98;14.57;;;588.90;2432.00;;;;;;5000952;28;20117;-87
2021/07/28 03:11:40;;;;;;;24.20;15.63;;;589.00;2432.00;;;;;;5000584;28;20037;-87
2021/07/28 03:14:06;;;;;;;20.80;13.80;;;589.00;2432.00;;;;;;5000546;28;20494;-85
2021/07/28 03:16:32;;;;;;;22.77;13.20;;;589.20;2432.00;;;;;;5000211;28;20399;-86
2021/07/28 03:18:58;;;;;;;19.08;13.48;;;589.40;2432.00;;;;;;5000634;28;20030;-87
2021/07/28 03:21:24;;;;;;;23.85;12.93;;;589.40;2432.00;;;;;;5000541;28;20025;-87
2021/07/28 03:23:51;;;;;;;26.58;13.93;;;589.60;2432.00;;;;;;5000575;28;20161;-87
2021/07/28 03:26:17;;;;;;;29.83;15.55;;;589.30;2432.00;;;;;;5000914;28;20029;-86
2021/07/28 03:28:42;;;;;;;25.38;15.13;;;589.20;2432.00;;;;;;5000708;28;20029;-87
2021/07/28 03:31:09;;;;;;;24.05;14.15;;;589.20;2432.00;;;;;;5000547;28;20028;-86
2021/07/28 03:33:35;;;;;;;20.17;14.32;;;589.30;2432.00;;;;;;5000615;28;20029;-87
2021/07/28 03:36:01;;;;;;;22.58;13.68;;;589.30;2432.00;;;;;;5000135;28;20053;-87
2021/07/28 03:38:27;;;;;;;26.45;14.65;;;589.30;2432.00;;;;;;5000353;28;20057;-87
2021/07/28 03:40:53;;;;;;;24.02;14.55;;;589.40;2432.00;;;;;;5000253;28;20061;-86
2021/07/28 03:43:18;;;;;;;21.60;14.10;;;589.40;2432.00;;;;;;5000193;28;20022;-86
2021/07/28 03:45:44;;;;;;;23.20;14.90;;;589.50;2432.00;;;;;;5000042;28;20018;-87
2021/07/28 03:48:10;;;;;;;23.75;15.48;;;;;;;;;;5000161;28;20026;-87
2021/07/28 03:50:36;;;;;;;21.15;14.35;;;588.80;2432.00;;;;;;5033221;28;20018;-87
2021/07/28 03:53:03;;;;;;;25.95;13.98;;;564.10;2432.00;;;;;;4999071;28;20026;-86
2021/07/28 03:55:29;;;;;;;24.05;15.27;;;588.80;2432.00;;;;;;5000266;28;20159;-89
2021/07/28 03:57:55;;;;;;;27.95;15.85;;;564.10;2432.00;;;;;;5000204;28;20183;-86
2021/07/28 04:00:21;;;;;;;24.25;14.40;;;589.00;2432.00;;;;;;5000210;28;20027;-87
2021/07/28 04:02:47;;;;;;;24.77;13.75;;;589.00;2432.00;;;;;;4999710;28;20455;-86
2021/07/28 04:05:14;;;;;;;24.55;14.35;;;589.00;2432.00;;;;;;5000022;28;20076;-87
2021/07/28 04:07:41;;;;;;;21.58;13.25;;;588.80;2432.00;;;;;;4999907;28;20025;-87
2021/07/28 04:10:07;;;;;;;25.15;14.20;;;588.90;2432.00;;;;;;4999811;28;20479;-87
2021/07/28 04:12:33;;;;;;;24.20;14.23;;;589.50;2432.00;;;;;;4999779;28;20046;-87
2021/07/28 04:14:59;;;;;;;22.73;15.23;;;588.80;2432.00;;;;;;4999768;28;20030;-86
2021/07/28 04:17:25;;;;;;;22.33;13.77;;;588.80;2432.00;;;;;;5000078;28;20042;-86
2021/07/28 04:19:50;;;;;;;24.17;13.65;;;564.10;2432.00;;;;;;4999910;28;20022;-86
2021/07/28 04:22:17;;;;;;;19.35;13.95;;;588.90;2432.00;;;;;;4999570;28;20025;-86
2021/07/28 04:24:43;;;;;;;20.95;13.73;;;589.00;2432.00;;;;;;4999760;28;20083;-86
2021/07/28 04:27:09;;;;;;;22.55;13.80;;;589.00;2432.00;;;;;;4999525;28;20430;-88
2021/07/28 04:29:35;;;;;;;22.52;13.75;;;589.10;2432.00;;;;;;5000505;28;20041;-86
2021/07/28 04:32:01;;;;;;;19.92;13.30;;;589.20;2432.00;;;;;;4999808;28;20498;-87
2021/07/28 04:34:27;;;;;;;21.77;12.52;;;589.30;2432.00;;;;;;4999794;28;20048;-86
2021/07/28 04:36:52;;;;;;;19.92;14.05;;;589.40;2432.00;;;;;;4998876;28;20536;-86
2021/07/28 04:39:18;;;;;;;21.45;13.40;;;589.50;2432.00;;;;;;4999591;28;20379;-87
2021/07/28 04:41:44;;;;;;;21.25;13.48;;;589.60;2432.00;;;;;;4999163;28;20032;-87
2021/07/28 04:44:10;;;;;;;24.25;14.00;;;589.70;2432.00;;;;;;4999307;28;20022;-87
2021/07/28 04:46:35;;;;;;;19.60;14.32;;;614.40;2432.00;;;;;;4999644;28;20056;-87
2021/07/28 04:49:01;;;;;;;27.90;15.68;;;589.70;2432.00;;;;;;4999385;28;20021;-87
2021/07/28 04:51:27;;;;;;;21.17;13.85;;;589.70;2432.00;;;;;;4999311;28;20053;-86
2021/07/28 04:53:53;;;;;;;22.58;14.10;;;589.50;2432.00;;;;;;4999784;28;20033;-87
2021/07/28 04:56:19;;;;;;;31.48;15.38;;;589.60;2432.00;;;;;;4999592;28;20022;-86
2021/07/28 04:58:45;;;;;;;26.02;15.98;;;589.50;2432.00;;;;;;4998954;28;20022;-86
2021/07/28 05:01:11;;;;;;;27.25;17.27;;;589.50;2432.00;;;;;;4998913;28;20499;-86
2021/07/28 05:03:37;;;;;;;31.70;17.67;;;589.40;2432.00;;;;;;4999520;28;20018;-87
2021/07/28 05:06:03;;;;;;;28.08;16.38;;;589.50;2432.00;;;;;;4999208;28;20038;-87
2021/07/28 05:08:29;;;;;;;24.52;16.17;;;589.70;2432.00;;;;;;4999341;28;20032;-87
2021/07/28 05:10:55;;;;;;;29.77;16.58;;;589.70;2432.00;;;;;;4998778;28;20053;-86
2021/07/28 05:13:21;;;;;;;33.10;24.88;;;614.40;2432.00;;;;;;4998675;28;20529;-86
2021/07/28 05:15:52;;;;;;;32.22;18.40;;;614.50;2432.00;;;;;;4998535;28;20068;-86
2021/07/28 05:18:18;;;;;;;25.95;15.50;;;589.70;2432.00;;;;;;4998679;28;20018;-86
2021/07/28 05:20:44;;;;;;;24.58;16.67;;;589.70;2432.00;;;;;;4998237;28;20029;-86
2021/07/28 05:23:09;;;;;;;25.25;17.45;;;589.50;2432.00;;;;;;4998225;28;20468;-87
2021/07/28 05:25:35;;;;;;;25.80;16.10;;;589.50;2432.00;;;;;;4998838;28;20348;-87
2021/07/28 05:28:01;;;;;;;27.83;16.15;;;589.50;2432.00;;;;;;4999059;28;20022;-87
2021/07/28 05:30:27;;;;;;;20.08;15.02;;;589.40;2432.00;;;;;;4998968;28;20598;-87
2021/07/28 05:32:54;;;;;;;23.08;13.82;;;589.50;2432.00;;;;;;4999105;28;20116;-87
2021/07/28 05:35:20;;;;;;;20.30;14.77;;;589.60;2432.00;;;;;;4999122;28;20018;-86
2021/07/28 05:37:46;;;;;;;23.98;13.65;;;589.70;2432.00;;;;;;4999336;28;20022;-87
2021/07/28 05:40:12;;;;;;;25.90;14.98;;;614.40;2432.00;;;;;;4998719;28;20021;-87
2021/07/28 05:42:38;;;;;;;30.95;15.80;;;614.40;2432.00;;;;;;4998269;28;20080;-87
2021/07/28 05:45:05;;;;;;;28.55;15.25;;;614.50;2432.00;;;;;;4997942;28;20022;-87
2021/07/28 05:47:31;;;;;;;21.55;15.07;;;614.60;2432.00;;;;;;4998786;28;20080;-87
2021/07/28 05:49:58;;;;;;;22.77;15.05;;;614.70;2432.00;;;;;;4998444;28;20411;-87
2021/07/28 05:52:24;;;;;;;22.13;13.43;;;614.80;2432.00;;;;;;4998282;28;20125;-86
2021/07/28 05:54:50;;;;;;;23.67;14.13;;;614.90;2432.00;;;;;;4998078;28;20516;-85
2021/07/28 05:57:16;;;;;;;30.95;15.20;;;615.10;2432.00;;;;;;5001318;28;20030;-86
2021/07/28 05:59:42;;;;;;;21.70;15.38;;;615.20;2432.00;;;;;;5004177;28;20026;-87
2021/07/28 06:02:07;;;;;;;22.42;14.68;;;640.00;2432.00;;;;;;5005914;28;20026;-86
2021/07/28 06:04:33;;;;;;;37.03;14.80;;;640.00;2432.00;;;;;;5007935;28;20048;-86
2021/07/28 06:06:59;;;;;;;22.13;13.68;;;640.30;2432.00;;;;;;5003378;28;20029;-87
2021/07/28 06:09:25;;;;;;;21.33;13.70;;;640.10;2432.00;;;;;;4998012;28;20040;-87
2021/07/28 06:11:51;;;;;;;26.55;14.60;;;640.20;2432.00;;;;;;4997934;28;20022;-86
2021/07/28 06:14:17;;;;;;;23.02;13.60;;;640.20;2432.00;;;;;;4997783;28;20030;-87
2021/07/28 06:16:42;;;;;;;29.33;14.73;;;640.20;2432.00;;;;;;4998095;28;20042;-86
2021/07/28 06:19:08;;;;;;;21.70;13.57;;;640.10;2432.00;;;;;;4998351;28;20121;-86
2021/07/28 06:21:35;;;;;;;24.95;15.35;;;640.20;2432.00;;;;;;4998506;28;20057;-86
2021/07/28 06:24:01;;;;;;;24.30;14.02;;;640.20;2432.00;;;;;;4999151;28;20109;-86
2021/07/28 06:26:27;;;;;;;24.05;14.88;;;640.20;2432.00;;;;;;4998843;28;20149;-86
2021/07/28 06:28:53;;;;;;;31.05;15.88;;;640.30;2432.00;;;;;;4998746;28;20029;-88
2021/07/28 06:31:19;;;;;;;26.42;14.93;;;640.40;2432.00;;;;;;4999036;28;20537;-87
2021/07/28 06:33:45;;;;;;;23.73;15.02;;;640.50;2432.00;;;;;;5000086;28;20026;-87
2021/07/28 06:36:11;;;;;;;26.30;15.57;;;640.60;2432.00;;;;;;5020023;28;20061;-87
2021/07/28 06:38:37;;;;;;;32.97;17.25;;;640.80;2432.00;;;;;;5021321;28;20018;-88
2021/07/28 06:41:03;;;;;;;26.20;17.25;;;640.90;2432.00;;;;;;5021287;28;20055;-88
2021/07/28 06:43:29;;;;;;;29.52;15.85;;;665.70;2432.00;;;;;;5020990;28;20010;-88
2021/07/28 06:45:59;;;;;;;28.33;14.10;;;665.90;2432.00;;;;;;5021008;28;20014;-87
2021/07/28 06:48:25;;;;;;;25.05;15.63;;;666.00;2432.00;;;;;;5020654;28;20010;-87
2021/07/28 06:50:51;;;;;;;20.75;14.55;;;666.00;2432.00;;;;;;5020819;28;20013;-87
2021/07/28 06:53:17;;;;;;;21.20;14.55;;;666.00;2432.00;;;;;;5021110;28;20041;-87
2021/07/28 06:55:43;;;;;;;30.98;15.65;;;666.20;2432.00;;;;;;5021338;28;20024;-87
2021/07/28 06:58:09;;;;;;;32.50;15.38;;;666.50;2432.00;;;;;;5021104;28;20042;-87
2021/07/28 07:00:35;;;;;;;21.70;13.73;;;691.20;2432.00;;;;;;5021140;28;20014;-88
2021/07/28 07:03:01;;;;;;;25.58;16.65;;;691.40;2432.00;;;;;;5021251;28;20022;-88
2021/07/28 07:05:27;;;;;;;30.92;16.25;;;691.60;2432.00;;;;;;5021414;28;20037;-88
2021/07/28 07:07:53;;;;;;;25.83;14.32;;;691.70;2432.00;;;;;;5021253;28;20034;-88
2021/07/28 07:10:20;;;;;;;24.20;14.48;;;691.90;2432.00;;;;;;5011829;28;20030;-90
2021/07/28 07:12:46;;;;;;;23.48;14.48;;;716.90;2432.00;;;;;;4997357;28;20060;-89
2021/07/28 07:15:12;;;;;;;24.38;16.30;;;692.10;2432.00;;;;;;4997887;28;20064;-89
2021/07/28 07:17:38;;;;;;;28.15;15.05;;;716.90;2432.00;;;;;;5002268;28;20066;-89
2021/07/28 07:20:05;;;;;;;27.30;14.35;;;691.50;2432.00;;;;;;4997316;28;20475;-89
2021/07/28 07:22:30;;;;;;;25.00;14.07;;;717.10;2432.00;;;;;;5000097;28;20157;-87
2021/07/28 07:24:56;;;;;;;29.63;15.18;;;717.20;2432.00;;;;;;4996873;28;20041;-86
2021/07/28 07:27:26;;;;;;;21.08;13.73;;;717.30;2432.00;;;;;;4999434;28;20029;-88
2021/07/28 07:29:51;;;;;;;22.13;14.48;;;717.40;2432.00;;;;;;5001071;28;20443;-87
2021/07/28 07:32:21;;;;;;;31.23;17.60;;;717.50;2432.00;;;;;;5013244;28;20060;-87
2021/07/28 07:34:49;;;;;;;23.40;15.52;;;717.70;2432.00;;;;;;5008783;28;20026;-87
2021/07/28 07:37:15;;;;;;;21.67;13.40;;;717.70;2432.00;;;;;;5008165;28;20030;-89
2021/07/28 07:39:41;;;;;;;17.98;12.63;;;742.40;2432.00;;;;;;5008026;28;20018;-88
2021/07/28 07:42:07;;;;;;;22.20;12.63;;;742.60;2432.00;;;;;;5006339;28;20029;-89
2021/07/28 07:44:33;;;;;;;20.50;12.73;;;742.70;2432.00;;;;;;5002906;28;20014;-89
2021/07/28 07:47:00;;;;;;;24.65;12.15;;;742.90;2432.00;;;;;;5007646;28;20025;-89
2021/07/28 07:49:25;;;;;;;32.25;14.85;;;742.80;2432.00;;;;;;5012238;28;20022;-88
2021/07/28 07:51:51;;;;;;;31.75;18.52;;;742.90;2432.00;;;;;;5006513;28;20028;-88
2021/07/28 07:54:18;;;;;;;26.63;17.75;;;743.00;2432.00;;;;;;5015363;28;20129;-89
2021/07/28 07:56:43;;;;;;;22.35;14.63;;;742.70;2432.00;;;;;;5002695;28;20029;-89
2021/07/28 07:59:09;;;;;;;25.73;14.38;;;743.30;2432.00;;;;;;5014549;28;20471;-87
2021/07/28 08:01:35;;;;;;;28.33;17.88;;;768.10;2432.00;;;;;;5004972;28;20026;-86
2021/07/28 08:04:01;;;;;;;23.70;12.45;;;768.20;2432.00;;;;;;5007460;28;20072;-86
2021/07/28 08:06:27;;;;;;;22.73;14.25;;;768.40;2432.00;;;;;;5002425;28;20108;-86
2021/07/28 08:08:53;;;;;;;23.25;14.77;;;768.50;2432.00;;;;;;5004740;28;20034;-87
2021/07/28 08:11:19;;;;;;;25.13;13.07;;;768.60;2432.00;;;;;;5003900;28;20057;-86
2021/07/28 08:13:44;;;;;;;23.23;13.73;;;768.60;2432.00;;;;;;5019164;28;20023;-87
2021/07/28 08:16:18;;;;;;;21.23;12.90;;;768.60;2432.00;;;;;;5015782;28;20128;-83
2021/07/28 08:18:44;;;;;;;23.20;13.15;;;768.60;2432.00;;;;;;5019050;28;20022;-85
2021/07/28 08:21:11;;;;;;;24.30;13.55;;;768.90;2432.00;;;;;;5019432;28;20017;-88
2021/07/28 08:23:38;;;;;;;19.80;12.65;;;793.90;2432.00;;;;;;5022198;28;20035;-83
2021/07/28 08:26:04;;;;;;;27.90;17.23;;;768.90;2432.00;;;;;;5022625;28;20097;-83
2021/07/28 08:28:30;;;;;;;29.25;20.20;;;793.60;2432.00;;;;;;5027881;28;20052;-84
2021/07/28 08:30:56;;;;;;;21.65;13.02;;;793.90;2432.00;;;;;;5030663;28;20505;-82
2021/07/28 08:33:24;;;;;;;23.33;16.70;;;793.70;2432.00;;;;;;5030624;28;20028;-82
2021/07/28 08:35:50;;;;;;;22.55;15.07;;;794.00;2432.00;;;;;;5030920;28;20040;-82
2021/07/28 08:38:20;;;;;;;20.33;14.15;;;794.20;2432.00;;;;;;5029013;28;20022;-83
2021/07/28 08:40:49;;;;;;;21.42;12.40;;;794.20;2432.00;;;;;;5050034;28;20089;-82
2021/07/28 08:43:28;;;;;;;19.02;12.00;;;793.80;2432.00;;;;;;5054598;28;20029;-87
2021/07/28 08:46:01;;;;;;;18.55;13.32;;;794.00;2432.00;;;;;;5037021;28;20053;-89
2021/07/28 08:48:30;;;;;;;20.23;11.02;;;794.40;2432.00;;;;;;5038266;28;20116;-87
2021/07/28 08:51:04;;;;;;;18.52;10.63;;;794.50;2432.00;;;;;;5035530;28;20106;-86
2021/07/28 08:53:30;;;;;;;18.35;12.48;;;819.20;2432.00;;;;;;5027060;28;20026;-88
2021/07/28 08:55:59;;;;;;;23.55;14.65;;;819.60;2432.00;;;;;;5017593;28;20029;-82
2021/07/28 08:58:26;;;;;;;20.17;15.27;;;819.70;2432.00;;;;;;5017468;28;20033;-83
2021/07/28 09:00:53;;;;;;;24.08;12.88;;;819.80;2432.00;;;;;;5018206;28;20061;-83
2021/07/28 09:03:19;;;;;;;24.20;12.50;;;819.80;2432.00;;;;;;5018087;28;20470;-83
2021/07/28 09:05:47;;;;;;;18.98;10.52;;;820.10;2432.00;;;;;;5018599;28;20040;-83
2021/07/28 09:08:34;;;;;;;17.15;9.70;;;820.00;2432.00;;;;;;5006899;28;20597;-84
2021/07/28 09:11:04;;;;;;;17.13;9.20;;;820.10;2432.00;;;;;;5036179;28;20025;-86
2021/07/28 09:13:35;;;;;;;20.80;9.23;;;820.00;2432.00;;;;;;5018452;28;20028;-84
2021/07/28 09:16:06;;;;;;;19.97;12.30;;;820.00;2432.00;;;;;;5017814;28;20050;-86
2021/07/28 09:18:38;;;;;;;19.10;9.05;;;844.90;2432.00;;;;;;5018254;28;20028;-86
2021/07/28 09:21:27;;;;;;;18.23;9.75;;;845.00;2432.00;;;;;;5018227;28;20107;-86
2021/07/28 09:24:11;;;;;;;23.30;10.88;;;845.10;2432.00;;;;;;5017830;28;20056;-87
2021/07/28 09:26:49;;;;;;;22.25;9.15;;;845.40;2432.00;;;;;;5018118;28;20160;-85
2021/07/28 09:29:16;;;;;;;16.92;9.18;;;845.50;2432.00;;;;;;5017711;28;20025;-84
2021/07/28 09:31:44;;;;;;;13.82;8.88;;;845.20;2432.00;;;;;;5017413;28;20025;-84
2021/07/28 09:34:32;;;;;;;16.15;11.02;;;845.50;2432.00;;;;;;5017836;28;20025;-85
2021/07/28 09:37:00;;;;;;;20.58;12.10;;;845.70;2432.00;;;;;;5017252;28;20407;-83
2021/07/28 09:39:32;;;;;;;27.98;13.88;;;870.40;2380.80;;;;;;5018128;28;20049;-85
2021/07/28 09:42:00;;;;;;;23.42;13.95;;;870.60;2406.40;;;;;;5017944;28;20132;-84
2021/07/28 09:44:35;;;;;;;23.40;10.93;;;870.80;2380.80;;;;;;5016893;28;20026;-84
2021/07/28 09:47:06;;;;;;;17.48;10.70;;;870.70;2329.60;;;;;;5011385;28;20033;-83
2021/07/28 09:49:33;;;;;;;17.30;9.77;;;870.90;2329.60;;;;;;5013822;28;20035;-84
2021/07/28 09:51:59;;;;;;;23.25;10.63;;;870.90;2304.00;;;;;;5003452;28;20033;-85
2021/07/28 09:54:31;;;;;;;16.50;10.18;;;871.20;2278.40;;;;;;5003389;28;20072;-85
2021/07/28 09:56:58;;;;;;;16.45;9.90;;;896.00;2278.40;;;;;;5010737;28;20041;-84
2021/07/28 09:59:24;;;;;;;29.45;9.90;;;896.10;2278.40;;;;;;5039447;28;20399;-84
2021/07/28 10:01:51;;;;;;;18.10;10.00;;;896.30;2252.80;;;;;;5005070;28;20029;-84
2021/07/28 10:04:19;;;;;;;17.42;9.50;;;896.50;2201.60;;;;;;5005276;28;20044;-85
2021/07/28 10:06:48;;;;;;;18.35;9.80;;;896.60;2227.20;;;;;;5004852;28;20048;-83
2021/07/28 10:09:16;;;;;;;15.60;8.95;;;896.70;2201.60;;;;;;5005766;28;20668;-85
2021/07/28 10:11:48;;;;;;;19.48;8.73;;;896.80;2201.60;;;;;;5018624;28;20057;-86
2021/07/28 10:14:19;;;;;;;21.27;8.88;;;921.60;2176.00;;;;;;5018666;28;20487;-88
2021/07/28 10:16:46;;;;;;;17.80;8.57;;;921.80;2176.00;;;;;;5018627;28;20133;-89
2021/07/28 10:19:12;;;;;;;19.08;9.13;;;922.00;2150.40;;;;;;5018137;28;20032;-90
2021/07/28 10:21:39;;;;;;;17.25;8.95;;;921.90;2150.40;;;;;;5018048;28;20029;-88
2021/07/28 10:24:06;;;;;;;15.88;8.60;;;896.70;2099.20;;;;;;5018079;28;20037;-89
2021/07/28 10:26:45;;;;;;;16.52;7.60;;;922.00;2124.80;;;;;;5017202;28;20025;-87
2021/07/28 10:29:14;;;;;;;17.20;8.88;;;922.10;2099.20;;;;;;5017931;28;20124;-84
2021/07/28 10:31:54;;;;;;;22.45;9.02;;;922.40;2073.60;;;;;;5017978;28;20061;-89
2021/07/28 10:34:25;;;;;;;18.05;8.15;;;947.20;2048.00;;;;;;5018252;28;20026;-87
2021/07/28 10:37:08;;;;;;;16.85;8.45;;;922.40;2022.40;;;;;;5017760;28;20506;-87
2021/07/28 10:39:47;;;;;;;20.05;10.57;;;922.50;2048.00;;;;;;5017219;28;20128;-87
2021/07/28 10:42:31;;;;;;;20.35;9.95;;;947.40;1996.80;;;;;;5017451;28;20471;-86
2021/07/28 10:44:57;;;;;;;18.35;9.50;;;947.70;2022.40;;;;;;5050315;28;20474;-87
2021/07/28 10:47:46;;;;;;;18.25;8.73;;;947.60;2022.40;;;;;;5050047;28;20084;-86
2021/07/28 10:50:30;;;;;;;20.13;9.02;;;947.70;2022.40;;;;;;5009499;28;20115;-86
2021/07/28 10:53:00;;;;;;;21.42;8.60;;;947.60;2048.00;;;;;;5050536;28;20036;-90
2021/07/28 10:55:30;;;;;;;20.77;9.82;;;947.50;2022.40;;;;;;5016692;28;20025;-87
2021/07/28 10:58:09;;;;;;;19.15;9.60;;;922.40;2022.40;;;;;;5016835;28;20100;-85
2021/07/28 11:00:38;;;;;;;18.63;8.05;;;922.40;2048.00;;;;;;5050403;28;20029;-85
2021/07/28 11:03:06;;;;;;;20.13;9.32;;;947.40;2022.40;;;;;;5053713;28;20029;-89
2021/07/28 11:05:40;;;;;;;17.38;9.15;;;947.80;1971.20;;;;;;5054158;28;20149;-84
2021/07/28 11:08:12;;;;;;;20.98;8.18;;;948.10;1996.80;;;;;;5020122;28;20069;-87
2021/07/28 11:11:01;;;;;;;17.23;8.25;;;973.00;1971.20;;;;;;5020408;28;20033;-86
2021/07/28 11:13:31;;;;;;;15.18;7.68;;;973.10;1945.60;;;;;;5020736;28;20087;-86
2021/07/28 11:16:06;;;;;;;16.55;7.43;;;973.30;1945.60;;;;;;5021149;28;20080;-87
2021/07/28 11:18:37;;;;;;;16.25;7.05;;;973.30;1920.00;;;;;;5021032;28;20038;-85
2021/07/28 11:21:22;;;;;;;12.82;7.78;;;972.80;1971.20;;;;;;5020855;28;20029;-88
2021/07/28 11:23:49;;;;;;;18.27;7.85;;;973.30;1920.00;;;;;;5020707;28;20048;-88
2021/07/28 11:26:30;;;;;;;18.48;8.23;;;973.30;1920.00;;;;;;5020513;28;20029;-86
2021/07/28 11:29:00;;;;;;;;;;;973.40;1945.60;;;;;;5020820;28;20022;-88
2021/07/28 11:31:30;;;;;;;16.13;8.63;;;973.30;1945.60;;;;;;5020046;28;19963;-88
2021/07/28 11:34:08;;;;;;;21.42;9.00;;;972.90;1945.60;;;;;;5020023;28;20514;-88
2021/07/28 11:36:35;;;;;;;20.48;7.72;;;948.10;1920.00;;;;;;5019916;28;20041;-90
2021/07/28 11:39:14;;;;;;;16.52;7.93;;;947.90;1894.40;;;;;;5019865;28;20022;-88
2021/07/28 11:41:41;;;;;;;15.57;8.13;;;972.90;1945.60;;;;;;5019990;28;20061;-88
2021/07/28 11:44:07;;;;;;;20.73;9.60;;;948.10;1945.60;;;;;;5020325;28;20038;-88
2021/07/28 11:46:34;;;;;;;16.85;8.65;;;972.80;1945.60;;;;;;5019933;28;20164;-86
2021/07/28 11:49:04;;;;;;;17.65;10.02;;;973.30;1920.00;;;;;;5020175;28;20107;-86
2021/07/28 11:51:32;;;;;;;24.77;12.05;;;973.20;1945.60;;;;;;5019949;28;20049;-86
2021/07/28 11:54:13;;;;;;;16.80;8.73;;;973.40;1971.20;;;;;;5020083;28;20091;-86
2021/07/28 11:56:52;;;;;;;13.68;7.93;;;973.40;1894.40;;;;;;5019863;28;20037;-88
2021/07/28 11:59:23;;;;;;;18.73;8.68;;;973.40;1894.40;;;;;;5020548;28;20052;-89
2021/07/28 12:01:53;;;;;;;16.13;8.10;;;973.60;1920.00;;;;;;5019975;28;20045;-88
2021/07/28 12:04:24;;;;;;;22.40;8.00;;;973.70;1868.80;;;;;;5019562;28;20263;-88
2021/07/28 12:06:51;;;;;;;13.77;7.63;;;973.70;1843.20;;;;;;5020066;28;20033;-88
2021/07/28 12:09:28;;;;;;;15.20;8.23;;;998.70;1894.40;;;;;;5019396;28;20030;-85
2021/07/28 12:12:19;;;;;;;16.15;8.30;;;998.80;1868.80;;;;;;5019606;28;20048;-88